createdAt,value
2022-11-14T00:09:20.747Z,76396.16
2022-11-14T00:19:41.744Z,76379.97
2022-11-14T00:30:05.049Z,76382.00
2022-11-14T00:40:26.001Z,76382.00
2022-11-14T00:50:51.514Z,76390.09
2022-11-14T01:01:12.241Z,76390.09
2022-11-14T01:11:32.680Z,76386.03
2022-11-14T01:21:54.502Z,76394.16
2022-11-14T01:32:15.265Z,76386.03
2022-11-14T01:42:38.432Z,76379.97
2022-11-14T01:53:04.473Z,76365.81
2022-11-14T02:03:24.958Z,76361.75
2022-11-14T02:13:49.113Z,76353.66
2022-11-14T02:24:10.995Z,76353.66
2022-11-14T02:34:31.794Z,76359.72
2022-11-14T02:44:55.793Z,76371.88
2022-11-14T02:55:21.185Z,76367.81
2022-11-14T03:05:42.007Z,76367.81
2022-11-14T03:16:12.930Z,76357.72
2022-11-14T03:26:36.173Z,76357.72
2022-11-14T03:36:57.835Z,76345.56
2022-11-14T03:47:18.482Z,76349.63
2022-11-14T03:57:40.204Z,76347.59
2022-11-14T04:08:02.263Z,76341.50
2022-11-14T04:18:23.278Z,76321.28
2022-11-14T04:28:44.030Z,76325.31
2022-11-14T04:39:09.326Z,76319.25
2022-11-14T04:49:33.247Z,76333.41
2022-11-14T04:59:54.868Z,76333.41
2022-11-14T05:10:16.768Z,76339.50
2022-11-14T05:20:37.771Z,76337.47
2022-11-14T05:31:06.248Z,76341.50
2022-11-14T05:41:29.670Z,76339.50
2022-11-14T05:51:52.661Z,76349.63
2022-11-14T06:02:13.292Z,76351.63
2022-11-14T06:12:36.155Z,76357.72
2022-11-14T06:22:56.882Z,76349.63
2022-11-14T06:33:17.653Z,76359.72
2022-11-14T06:43:43.115Z,76345.56
2022-11-14T06:54:07.824Z,76341.50
2022-11-14T07:04:28.597Z,76337.47
2022-11-14T07:14:49.000Z,76339.50
2022-11-14T07:25:11.903Z,76341.50
2022-11-14T07:35:39.756Z,76337.47
2022-11-14T07:46:30.014Z,76345.56
2022-11-14T07:56:54.996Z,76343.53
2022-11-14T08:07:16.907Z,76337.47
2022-11-14T08:17:41.432Z,76321.28
2022-11-14T08:28:04.723Z,76309.13
2022-11-14T08:38:28.544Z,76323.31
2022-11-14T08:48:49.374Z,76325.31
2022-11-14T08:59:09.949Z,76313.19
2022-11-14T09:09:35.677Z,76299.00
2022-11-14T09:19:58.402Z,76294.97
2022-11-14T09:30:23.186Z,76288.88
2022-11-14T09:40:56.050Z,76296.97
2022-11-14T09:51:20.032Z,76303.06
2022-11-14T10:01:46.781Z,76268.66
2022-11-14T10:12:15.781Z,76262.56
2022-11-14T10:22:44.293Z,76248.41
2022-11-14T10:33:13.244Z,76232.22
2022-11-14T10:43:50.427Z,76230.19
2022-11-14T10:54:18.854Z,76230.19
2022-11-14T11:04:47.163Z,76236.25
2022-11-14T11:15:31.792Z,76224.13
2022-11-14T11:26:06.033Z,76224.13
2022-11-14T11:36:29.073Z,76232.22
2022-11-14T11:46:54.066Z,76220.06
2022-11-14T11:57:23.859Z,76185.66
2022-11-14T12:08:21.166Z,76187.69
2022-11-14T12:18:53.700Z,76181.63
2022-11-14T12:29:26.385Z,76189.72
2022-11-14T12:40:04.045Z,76199.81
2022-11-14T12:50:37.230Z,76236.25
2022-11-14T13:01:00.172Z,76242.34
2022-11-14T13:11:53.189Z,76252.47
2022-11-14T13:22:16.238Z,76240.31
2022-11-14T13:33:01.230Z,76240.31
2022-11-14T13:43:43.736Z,76230.19
2022-11-14T13:54:17.162Z,76228.16
2022-11-14T14:04:58.997Z,76228.16
2022-11-14T14:15:47.451Z,76220.06
2022-11-14T14:26:30.651Z,76222.09
2022-11-14T14:36:53.902Z,76203.88
2022-11-14T14:47:34.048Z,76216.03
2022-11-14T14:57:56.526Z,76207.94
2022-11-14T15:08:18.053Z,76224.13
2022-11-14T15:18:43.220Z,76218.03
2022-11-14T15:29:27.539Z,76220.06
2022-11-14T15:39:51.866Z,76209.94
2022-11-14T15:50:14.726Z,76203.88
2022-11-14T16:00:35.667Z,76195.78
2022-11-14T16:10:59.370Z,76205.91
2022-11-14T16:21:20.260Z,76183.63
2022-11-14T16:31:43.131Z,76183.63
2022-11-14T16:42:12.119Z,76181.63
2022-11-14T16:52:33.784Z,76175.53
2022-11-14T17:02:56.022Z,76173.53
2022-11-14T17:13:24.273Z,76171.50
2022-11-14T17:23:45.271Z,76147.22
2022-11-14T17:34:05.980Z,76149.22
2022-11-14T17:44:26.821Z,76153.28
2022-11-14T17:54:47.896Z,76159.34
2022-11-14T18:05:11.303Z,76157.31
2022-11-14T18:15:35.686Z,76175.53
2022-11-14T18:26:01.151Z,76173.53
2022-11-14T18:36:24.642Z,76155.31
2022-11-14T18:46:45.431Z,76165.41
2022-11-14T18:57:10.877Z,76149.22
2022-11-14T19:07:31.643Z,76149.22
2022-11-14T19:17:52.256Z,76149.22
2022-11-14T19:28:12.882Z,76133.03
2022-11-14T19:38:34.013Z,76120.91
2022-11-14T19:49:01.937Z,76114.81
2022-11-14T19:59:24.618Z,76110.78
2022-11-14T20:09:45.462Z,76104.69
2022-11-14T20:20:06.936Z,76122.91
2022-11-14T20:30:30.478Z,76122.91
2022-11-14T20:41:06.432Z,76100.66
2022-11-14T20:51:33.585Z,76086.47
2022-11-14T21:01:54.048Z,76092.56
2022-11-14T21:12:18.024Z,76078.38
2022-11-14T21:22:41.341Z,76098.63
2022-11-14T21:33:03.771Z,76106.72
2022-11-14T21:43:25.085Z,76074.34
2022-11-14T21:53:47.285Z,76062.19
2022-11-14T22:04:14.283Z,76050.06
2022-11-14T22:14:35.203Z,76013.63
2022-11-14T22:24:56.103Z,76017.66
2022-11-14T22:35:17.198Z,76039.94
2022-11-14T22:45:40.327Z,76037.91
2022-11-14T22:56:03.647Z,76068.28
2022-11-14T23:06:24.860Z,76046.00
2022-11-14T23:16:45.586Z,76025.75
2022-11-14T23:27:06.161Z,76009.56
2022-11-14T23:37:31.647Z,76054.09
2022-11-14T23:47:52.443Z,76031.84
2022-11-14T23:58:13.069Z,76011.59
